KDYS/DYS METAR and TAF weather

Enter ICAO airport designator
Station Type Date Time Source
KDYS METAR 2019/10/21 21:56 UTC NOAA

KDYS 212156Z AUTO 00000KT 10SM CLR 22/M08 A2993 RMK AO2 SLP111 T02171079 PNO FZRANO $


Station Type Date Time Source
KDYS Decoded METAR 2019/10/21 21:56 UTC NOAA

Abilene, Dyess Air Force Base, TX, United States (KDYS) 32-25-12N 099-51-25W
Oct 21, 2019 - 05:56 PM EDT / 2019.10.21 2156 UTC
Wind: Calm:0
Visibility: 10 mile(s):0
Sky conditions: clear
Temperature: 71.1 F (21.7 C)
Dew Point: 17.8 F (-7.9 C)
Relative Humidity: 13%
Pressure (altimeter): 29.93 in. Hg (1013 hPa)
ob: KDYS 212156Z AUTO 00000KT 10SM CLR 22/M08 A2993 RMK AO2 SLP111 T02171079 PNO FZRANO
cycle: 22

Station Type Date Time Source
KDYS TAF 2019/10/21 22:58 UTC NOAA

TAF
AMD KDYS 210247Z 2022/2204 23012KT 9999 SCT120 QNH2961INS
BECMG 2103/2104 23012G18KT 9999 -TSRA BKN120CB QNH2970INS
BECMG 2104/2105 34009KT 9999 NSW SKC QNH2976INS
BECMG 2120/2121 26010G15KT 9999 SKC QNH2987INS TX25/2102Z TN08/2112Z

Example: see airport list